Latest Weather Observations for Yunta

IDS60801

Issued at 6:05 am CDT Saturday 1 November 2014 (issued every 30 minutes, with the page automatically refreshed every 10 minutes)

About weather observations | Map of weather stations | Latest weather observations for SA | Other Formats
Station Details ID: 020062 Name: YUNTA AIRSTRIP Lat: -32.57 Lon: 139.56 Height: 300.0 m
Data from the previous 72 hours. | See also: Recent months at Yunta
Date/Time
CDT
Temp
°C
App
Temp
°C
Dew
Point
Rel
Hum
%
Delta-T
°C
Wind Press
QNH
hPa
Press
MSL
hPa
Rain
since 9 am
mm
Dir
 
Spd
km/h
Gust
km/h
Spd
kts
Gust
kts
01/06:00am 13.9 8.9 9.5 75 2.3 SW 26 35 14 19 1009.2 1008.5 1.4
01/05:30am 14.7 7.8 10.3 75 2.3 SSW 37 48 20 26 1008.6 1007.9 1.4
01/05:00am 15.5 10.9 11.1 75 2.4 SW 26 35 14 19 1007.8 1007.2 1.4
01/04:30am 15.9 12.9 11.9 77 2.2 SW 19 26 10 14 1007.7 1007.1 1.4
01/04:00am 15.9 12.3 11.7 76 2.3 SW 22 30 12 16 1007.1 1006.5 1.4
01/03:30am 16.8 14.2 12.1 74 2.6 WSW 17 28 9 15 1006.6 1005.9 1.4
01/03:00am 16.4 15.9 12.8 79 2.0 SW 7 11 4 6 1006.3 1005.6 1.4
01/02:30am 16.8 15.9 12.7 77 2.3 SW 9 11 5 6 1006.0 1005.3 1.4
01/02:00am 17.4 15.5 13.1 76 2.5 SW 15 20 8 11 1005.6 1004.9 1.4
01/01:30am 17.3 17.3 14.2 82 1.8 SW 7 11 4 6 1006.2 1005.5 1.4
01/01:00am 17.6 18.5 15.2 86 1.4 W 4 6 2 3 1006.6 1005.9 1.4
01/12:30am 17.5 18.2 14.6 83 1.7 NNE 4 7 2 4 1006.3 1005.6 1.4
01/12:00am 17.5 17.3 14.8 84 1.6 W 9 15 5 8 1006.8 1006.1 1.4
 
Date/Time
CDT
Temp
°C
App
Temp
°C
Dew
Point
Rel
Hum
%
Delta-T
°C
Wind Press
QNH
hPa
Press
MSL
hPa
Rain
since 9 am
mm
Dir
 
Spd
km/h
Gust
km/h
Spd
kts
Gust
kts
31/11:30pm 17.3 17.0 13.4 78 2.2 S 7 15 4 8 1006.4 1005.7 1.2
31/11:00pm 18.0 15.2 12.7 71 3.0 SW 19 24 10 13 1007.3 1006.7 0.6
31/10:30pm 19.3 12.9 10.8 58 4.7 WSW 35 50 19 27 1006.8 1006.1 0.2
31/10:00pm 20.7 12.3 11.1 54 5.4 W 46 61 25 33 1007.5 1006.9 0.0
31/09:57pm 20.3 11.6 11.2 56 5.1 W 48 67 26 36 1007.7 1007.1 0.0
31/09:54pm 21.3 11.9 10.2 49 6.1 W 50 67 27 36 1007.6 1007.0 0.0
31/09:43pm 25.8 17.0 3.7 24 11.1 WSW 39 59 21 32 1005.5 1004.8 0.0
31/09:42pm 25.9 17.8 3.2 23 11.3 WSW 35 50 19 27 1005.1 1004.4 0.0
31/09:30pm 26.4 17.4 2.3 21 11.9 SW 39 54 21 29 1002.9 1002.2 0.0
31/09:17pm 27.4 19.5 2.5 20 12.4 SW 33 54 18 29 1002.5 1001.8 0.0
31/09:00pm 29.4 23.2 4.1 20 13.2 SW 26 35 14 19 1001.5 1000.8 0.0
31/08:30pm 31.5 26.6 4.3 18 14.4 NNW 19 26 10 14 1000.6 999.9 0.0
31/08:00pm 32.0 26.3 4.7 18 14.5 NNW 24 32 13 17 1000.5 999.8 0.0
31/07:30pm 32.7 26.0 3.6 16 15.3 NW 28 39 15 21 1000.4 999.7 0.0
31/07:00pm 33.4 26.3 3.3 15 15.7 NNW 30 39 16 21 1000.2 999.5 0.0
31/06:30pm 33.5 26.4 3.3 15 15.9 NW 30 41 16 22 1000.2 999.5 0.0
31/06:00pm 34.1 27.2 2.8 14 16.4 NW 28 39 15 21 1000.4 999.7 0.0
31/05:30pm 35.5 28.7 2.9 13 17.2 NW 28 41 15 22 1000.4 999.7 0.0
31/05:00pm 35.2 27.0 0.3 11 17.6 NW 33 46 18 25 1000.5 999.8 0.0
31/04:30pm 36.0 27.5 -1.8 9 18.6 NW 33 44 18 24 1000.8 1000.1 0.0
31/04:06pm 36.2 28.3 -1.7 9 18.6 NNW 30 48 16 26 1001.0 1000.3 0.0
31/04:00pm 35.7 27.6 -0.6 10 18.1 N 32 43 17 23 1001.3 1000.7 0.0
31/03:48pm 36.3 28.4 -1.6 9 18.6 NNW 30 52 16 28 1001.6 1000.9 0.0
31/03:30pm 35.8 28.6 -2.0 9 18.5 NNW 26 41 14 22 1002.1 1001.4 0.0
31/03:00pm 35.6 26.3 -2.1 9 18.4 N 37 61 20 33 1002.7 1002.0 0.0
31/02:36pm 35.4 26.5 -2.3 9 18.2 N 35 59 19 32 1003.2 1002.5 0.0
31/02:30pm 35.6 27.1 -2.1 9 18.4 N 33 46 18 25 1003.5 1002.8 0.0
31/02:05pm 34.7 26.6 -2.8 9 17.9 N 30 48 16 26 1004.2 1003.6 0.0
31/02:00pm 34.3 26.6 -3.1 9 17.7 NNW 28 43 15 23 1004.2 1003.6 0.0
31/01:30pm 33.9 25.8 -3.4 9 17.6 N 30 48 16 26 1005.0 1004.3 0.0
31/01:00pm 34.3 25.6 -3.1 9 17.7 N 33 46 18 25 1005.6 1004.9 0.0
31/12:30pm 32.9 24.5 -2.7 10 16.9 N 32 44 17 24 1006.1 1005.4 0.0
31/12:00pm 32.0 23.9 -3.4 10 16.5 N 30 39 16 21 1006.6 1005.9 0.0
31/11:30am 29.7 22.7 -3.9 11 15.2 N 24 33 13 18 1007.1 1006.5 0.0
31/11:00am 28.8 21.8 -3.4 12 14.6 N 24 33 13 18 1007.5 1006.9 0.0
31/10:30am 28.1 21.4 -3.9 12 14.3 N 22 30 12 16 1007.7 1007.1 0.0
31/10:00am 28.1 21.8 -3.9 12 14.3 N 20 35 11 19 1007.8 1007.2 0.0
31/09:30am 28.6 21.7 -2.5 13 14.3 N 24 33 13 18 1007.8 1007.2 0.0
31/09:14am 28.2 20.5 -2.8 13 14.1 N 28 32 15 17 1008.0 1007.4 0.0
31/09:00am 24.6 21.6 -2.0 17 12.0 NNW 4 9 2 5 1008.2 1007.6 0.0
31/08:30am 22.0 19.6 -3.4 18 10.9 CALM 0 4 0 2 1008.3 1007.7 0.0
31/08:00am 20.8 18.0 -3.0 20 10.1 S 2 4 1 2 1008.5 1007.8 0.0
31/07:30am 18.5 16.1 -3.0 23 9.0 CALM 0 0 0 0 1008.5 1007.8 0.0
31/07:00am 14.6 11.9 -5.7 24 7.7 CALM 0 0 0 0 1008.6 1007.9 0.0
31/06:30am 14.2 11.2 -5.0 26 7.4 W 2 4 1 2 1008.6 1007.9 0.0
31/06:00am 14.7 10.8 -6.2 23 7.8 SW 6 7 3 4 1008.6 1007.9 0.0
31/05:30am 14.8 11.3 -6.7 22 8.0 SSW 4 4 2 2 1008.7 1008.0 0.0
31/05:00am 15.1 12.3 -7.0 21 8.2 CALM 0 0 0 0 1009.0 1008.3 0.0
31/04:30am 15.0 12.2 -7.1 21 8.2 CALM 0 2 0 1 1009.2 1008.5 0.0
31/04:00am 14.2 11.4 -7.2 22 7.8 CALM 0 0 0 0 1009.4 1008.7 0.0
31/03:30am 14.1 10.9 -7.3 22 7.8 W 2 6 1 3 1009.5 1008.8 0.0
31/03:00am 14.6 10.4 -8.1 20 8.2 WSW 7 11 4 6 1009.6 1008.9 0.0
31/02:30am 14.4 11.1 -8.2 20 8.1 WNW 2 4 1 2 1009.6 1008.9 0.0
31/02:00am 14.9 12.0 -7.8 20 8.2 CALM 0 0 0 0 1010.0 1009.4 0.0
31/01:30am 15.9 13.1 -7.0 20 8.6 CALM 0 0 0 0 1010.4 1009.8 0.0
31/01:00am 16.4 13.6 -7.3 19 8.8 CALM 0 0 0 0 1011.0 1010.4 0.0
31/12:30am 16.6 13.7 -7.8 18 9.0 CALM 0 0 0 0 1011.4 1010.8 0.0
31/12:00am 17.8 14.6 -6.8 18 9.4 N 2 4 1 2 1011.6 1011.0 0.0
 
Date/Time
CDT
Temp
°C
App
Temp
°C
Dew
Point
Rel
Hum
%
Delta-T
°C
Wind Press
QNH
hPa
Press
MSL
hPa
Rain
since 9 am
mm
Dir
 
Spd
km/h
Gust
km/h
Spd
kts
Gust
kts
30/11:30pm 19.1 16.3 -6.5 17 10.0 CALM 0 0 0 0 1011.7 1011.1 0.0
30/11:00pm 20.6 17.9 -6.1 16 10.7 CALM 0 0 0 0 1011.8 1011.2 0.0
30/10:30pm 20.1 17.0 -5.7 17 10.3 W 2 6 1 3 1011.8 1011.2 0.0
30/10:00pm 22.8 19.3 -6.1 14 11.8 SSW 4 4 2 2 1011.8 1011.2 0.0
30/09:30pm 24.3 20.6 -4.9 14 12.4 S 6 7 3 4 1012.0 1011.3 0.0
30/09:00pm 26.1 21.0 -5.5 12 13.5 SW 13 15 7 8 1011.7 1011.1 0.0
30/08:30pm 27.3 21.9 -4.6 12 14.0 SW 15 19 8 10 1011.5 1010.9 0.0
30/08:00pm 28.0 23.0 -4.0 12 14.2 WSW 13 19 7 10 1011.3 1010.7 0.0
30/07:30pm 29.2 24.0 -3.1 12 14.8 W 15 20 8 11 1010.8 1010.2 0.0
30/07:00pm 30.3 25.0 -3.4 11 15.4 WSW 15 22 8 12 1010.6 1010.0 0.0
30/06:30pm 31.4 25.8 -2.6 11 15.9 WSW 17 26 9 14 1010.4 1009.8 0.0
30/06:00pm 32.1 26.5 -3.3 10 16.5 W 17 33 9 18 1010.3 1009.7 0.0
30/05:30pm 32.8 26.8 -2.8 10 16.8 W 19 24 10 13 1010.1 1009.5 0.0
30/05:00pm 33.5 26.9 -3.7 9 17.3 W 22 33 12 18 1010.2 1009.6 0.0
30/04:30pm 33.2 25.9 -2.5 10 17.0 WNW 26 37 14 20 1010.4 1009.8 0.0
30/04:00pm 33.1 26.4 -1.3 11 16.6 W 24 32 13 17 1010.6 1010.0 0.0
30/03:30pm 33.0 28.1 -0.2 12 16.4 WNW 15 30 8 16 1010.9 1010.3 0.0
30/03:00pm 32.3 26.7 -3.2 10 16.6 W 17 35 9 19 1011.4 1010.8 0.0
30/02:30pm 32.1 26.2 -2.0 11 16.2 W 19 41 10 22 1011.8 1011.2 0.0
30/02:00pm 31.8 25.7 -2.3 11 16.1 WSW 20 28 11 15 1012.6 1011.9 0.0
30/01:30pm 31.4 26.8 -1.4 12 15.7 SW 13 26 7 14 1013.0 1012.4 0.0
30/01:09pm 31.3 23.0 -1.5 12 15.6 WNW 32 37 17 20 1013.2 1012.6 0.0
30/01:00pm 30.7 27.6 1.1 15 14.7 WNW 7 17 4 9 1013.3 1012.7 0.0
30/12:30pm 29.5 26.4 1.1 16 14.0 NNW 7 15 4 8 1014.0 1013.4 0.0
30/12:00pm 28.7 25.8 2.8 19 13.0 N 7 19 4 10 1014.5 1013.9 0.0
30/11:30am 26.3 24.0 4.7 25 11.1 N 6 13 3 7 1015.0 1014.4 0.0
30/11:00am 23.6 22.0 6.4 33 9.0 NNE 4 11 2 6 1015.6 1014.9 0.0
30/10:30am 21.1 19.3 7.0 40 7.3 S 6 9 3 5 1016.1 1015.5 0.0
30/10:00am 19.1 17.8 7.5 47 6.0 ESE 4 7 2 4 1016.2 1015.6 0.0
30/09:30am 18.1 16.2 7.5 50 5.4 SSE 7 13 4 7 1016.3 1015.7 0.0
30/09:00am 17.2 15.5 7.5 53 4.9 SSE 6 9 3 5 1016.3 1015.7 0.0
30/08:30am 16.5 14.8 7.4 55 4.6 SSE 6 9 3 5 1016.4 1015.8 0.0
30/08:00am 15.3 13.6 7.6 60 3.9 SW 6 7 3 4 1016.4 1015.8 0.0
30/07:30am 13.4 12.5 6.0 61 3.6 CALM 0 0 0 0 1016.0 1015.4 0.0
30/07:00am 11.4 10.0 3.7 59 3.5 CALM 0 0 0 0 1015.9 1015.3 0.0
30/06:30am 11.0 8.7 4.7 65 2.9 SW 6 7 3 4 1015.9 1015.3 0.0
30/06:00am 11.6 9.3 4.6 62 3.2 SW 6 7 3 4 1015.6 1014.9 0.0
30/05:30am 12.1 9.6 3.9 57 3.7 SSW 6 7 3 4 1015.5 1014.8 0.0
30/05:00am 12.8 10.7 4.0 55 4.0 S 4 6 2 3 1015.3 1014.7 0.0
30/04:30am 13.7 11.5 3.5 50 4.7 SSW 4 7 2 4 1015.5 1014.8 0.0
30/04:00am 14.5 12.0 3.6 48 5.0 SSW 6 7 3 4 1015.6 1014.9 0.0
30/03:30am 15.6 12.8 3.4 44 5.7 SSW 7 9 4 5 1015.6 1014.9 0.0
30/03:00am 15.1 11.5 0.9 38 6.2 SSW 9 11 5 6 1015.7 1015.1 0.0
30/02:30am 14.9 11.2 -3.0 29 7.2 SW 7 9 4 5 1015.9 1015.3 0.0
30/02:00am 15.4 11.5 -5.0 24 7.9 SW 7 9 4 5 1015.9 1015.3 0.0
30/01:30am 14.8 10.7 -6.7 22 8.0 SSW 7 9 4 5 1016.0 1015.4 0.0
30/01:00am 14.8 12.0 -6.7 22 8.0 CALM 0 0 0 0 1016.1 1015.5 0.0
30/12:30am 15.2 11.1 -6.9 21 8.2 SE 7 9 4 5 1016.3 1015.7 0.0
30/12:00am 15.0 11.4 -7.1 21 8.1 SSE 4 7 2 4 1016.4 1015.8 0.0
 
Date/Time
CDT
Temp
°C
App
Temp
°C
Dew
Point
Rel
Hum
%
Delta-T
°C
Wind Press
QNH
hPa
Press
MSL
hPa
Rain
since 9 am
mm
Dir
 
Spd
km/h
Gust
km/h
Spd
kts
Gust
kts
29/11:30pm 16.7 14.0 -6.3 20 8.8 CALM 0 0 0 0 1016.4 1015.8 0.0
29/11:00pm 17.0 14.2 -6.8 19 9.0 CALM 0 0 0 0 1016.3 1015.7 0.0
29/10:30pm 19.0 16.4 -5.1 19 9.7 CALM 0 0 0 0 1016.4 1015.8 0.0
29/10:00pm 20.8 18.2 -5.1 17 10.6 CALM 0 2 0 1 1016.3 1015.7 0.0
29/09:30pm 22.4 19.5 -4.6 16 11.3 ESE 2 6 1 3 1016.0 1015.4 0.0
29/09:00pm 24.3 20.6 -4.9 14 12.4 S 6 9 3 5 1015.5 1014.8 0.0
29/08:30pm 25.6 21.6 -5.9 12 13.2 S 7 13 4 7 1015.3 1014.7 0.0
29/08:00pm 27.0 20.8 -4.8 12 13.8 SSW 19 26 10 14 1015.1 1014.5 0.0
29/07:30pm 27.9 23.8 -3.0 13 14.0 SW 9 15 5 8 1014.7 1014.1 0.0
29/07:00pm 29.2 25.2 -2.0 13 14.5 WNW 9 15 5 8 1014.4 1013.8 0.0
29/06:30pm 29.4 26.1 0.1 15 14.2 N 7 17 4 9 1014.2 1013.6 0.0
29/06:00pm 30.3 26.6 -0.1 14 14.7 NW 9 15 5 8 1014.2 1013.6 0.0
29/05:30pm 30.4 27.3 -0.1 14 14.8 SSW 6 15 3 8 1014.2 1013.6 0.0
29/05:00pm 30.3 27.1 0.8 15 14.5 WNW 7 17 4 9 1014.3 1013.7 0.0
29/04:30pm 30.4 26.8 0.9 15 14.5 W 9 17 5 9 1014.6 1014.0 0.0
29/04:00pm 29.2 25.4 -1.0 14 14.3 SSW 9 26 5 14 1014.9 1014.3 0.0
29/03:30pm 29.7 24.3 -1.6 13 14.7 W 17 28 9 15 1015.3 1014.7 0.0
29/03:00pm 29.2 24.5 -2.0 13 14.5 WNW 13 20 7 11 1015.8 1015.2 0.0
29/02:30pm 28.6 23.0 -2.5 13 14.3 WNW 17 30 9 16 1016.1 1015.5 0.0
29/02:00pm 28.4 23.3 -1.6 14 14.0 NW 15 28 8 15 1016.6 1016.0 0.0
29/01:30pm 27.7 23.1 -1.3 15 13.5 WNW 13 22 7 12 1017.1 1016.5 0.0
29/01:00pm 27.1 21.7 1.5 19 12.5 NNW 19 24 10 13 1017.4 1016.8 0.0
29/12:30pm 26.1 23.3 3.4 23 11.3 N 7 24 4 13 1017.9 1017.3 0.0
29/12:00pm 25.4 22.5 4.5 26 10.6 NNW 9 20 5 11 1018.6 1018.1 0.0
29/11:30am 23.8 21.0 5.2 30 9.5 N 9 19 5 10 1019.3 1018.7 0.0
29/11:00am 22.3 20.6 5.7 34 8.5 NW 4 11 2 6 1019.7 1019.1 0.0
29/10:30am 21.1 19.2 6.6 39 7.4 E 6 9 3 5 1020.1 1019.5 0.0
29/10:00am 19.9 18.8 7.0 43 6.6 SSE 2 6 1 3 1020.5 1019.9 0.0
29/09:30am 18.4 16.6 7.2 48 5.7 E 6 7 3 4 1020.6 1020.0 0.0
29/09:00am 17.0 15.6 7.1 52 5.0 SE 4 9 2 5 1020.7 1020.1 0.0
29/08:30am 15.6 14.2 7.1 57 4.2 SE 4 7 2 4 1020.7 1020.1 0.0
29/08:00am 14.5 12.7 7.1 61 3.7 SSE 6 7 3 4 1020.5 1019.9 0.0
29/07:30am 12.3 11.0 5.9 65 3.0 SSW 2 4 1 2 1020.3 1019.7 0.0
29/07:00am 9.6 7.4 3.6 66 2.7 SSW 4 6 2 3 1020.3 1019.7 0.0
29/06:30am 7.1 4.5 0.8 64 2.5 SW 4 6 2 3 1020.1 1019.5 0.0

Other Formats:

Comma delimited format used in spreadsheet applications
http://www.bom.gov.au/fwo/IDS60801/IDS60801.94684.axf

JavaScript Object Notation format (JSON) in row-major order
http://www.bom.gov.au/fwo/IDS60801/IDS60801.94684.json